South Padre Island, Texas
Current Conditions -  °F | °C
As of 12:15 PM on Thursday 29 Jan 2015 (Local Time) from KSPL Reporting Station
Clear Clear  
Wind Chill: 72°   Ceiling: Unl
Heat Index: 72°   Visibility: 10mi
Dew Point: 61°   Wind: 8mph
Humidity: 69%   Direction: 230°SW
Pressure: 30.2"   Gusts: NA
Location:  26.1°N, 97.17°W
Report Text: KSPL 291815Z AUTO 23007KT 10SM CLR 22/16 A3020 RMK AO1
Loading
Personal Weather Stations






























Interactive Weather Map New forecast layout! Learn more

10-Day Weather Forecast

Advertisements
Track Severe Weather on mobile